sensor_id;sensor_type;location;lat;lon;timestamp;P1;durP1;ratioP1;P2;durP2;ratioP2
7957;SDS011;4024;52.172;5.378;2023-01-08T00:00:25;5.53;;;2.10;;
7957;SDS011;4024;52.172;5.378;2023-01-08T00:02:51;7.50;;;2.53;;
7957;SDS011;4024;52.172;5.378;2023-01-08T00:05:18;8.83;;;2.27;;
7957;SDS011;4024;52.172;5.378;2023-01-08T00:07:44;5.97;;;2.30;;
7957;SDS011;4024;52.172;5.378;2023-01-08T00:10:10;4.30;;;2.10;;
7957;SDS011;4024;52.172;5.378;2023-01-08T00:12:43;4.90;;;2.30;;
7957;SDS011;4024;52.172;5.378;2023-01-08T00:15:18;5.13;;;2.27;;
7957;SDS011;4024;52.172;5.378;2023-01-08T00:20:42;5.70;;;2.57;;
7957;SDS011;4024;52.172;5.378;2023-01-08T00:23:13;4.03;;;2.33;;
7957;SDS011;4024;52.172;5.378;2023-01-08T00:25:40;5.87;;;2.30;;
7957;SDS011;4024;52.172;5.378;2023-01-08T00:28:14;7.87;;;2.10;;
7957;SDS011;4024;52.172;5.378;2023-01-08T00:30:40;6.17;;;2.33;;
7957;SDS011;4024;52.172;5.378;2023-01-08T00:33:06;6.13;;;2.30;;
7957;SDS011;4024;52.172;5.378;2023-01-08T00:35:32;5.90;;;2.30;;
7957;SDS011;4024;52.172;5.378;2023-01-08T00:37:58;4.27;;;2.07;;
7957;SDS011;4024;52.172;5.378;2023-01-08T00:40:25;3.50;;;2.00;;
7957;SDS011;4024;52.172;5.378;2023-01-08T00:42:51;9.30;;;2.40;;
7957;SDS011;4024;52.172;5.378;2023-01-08T00:45:25;6.13;;;2.30;;
7957;SDS011;4024;52.172;5.378;2023-01-08T00:48:01;5.73;;;2.10;;
7957;SDS011;4024;52.172;5.378;2023-01-08T00:50:35;5.13;;;1.97;;
7957;SDS011;4024;52.172;5.378;2023-01-08T00:53:01;5.33;;;2.10;;
7957;SDS011;4024;52.172;5.378;2023-01-08T00:55:28;7.27;;;2.40;;
7957;SDS011;4024;52.172;5.378;2023-01-08T00:57:54;5.80;;;2.63;;
7957;SDS011;4024;52.172;5.378;2023-01-08T01:00:22;3.80;;;2.30;;
7957;SDS011;4024;52.172;5.378;2023-01-08T01:02:48;6.77;;;2.50;;
7957;SDS011;4024;52.172;5.378;2023-01-08T01:05:14;8.20;;;3.20;;
7957;SDS011;4024;52.172;5.378;2023-01-08T01:07:41;5.63;;;2.40;;
7957;SDS011;4024;52.172;5.378;2023-01-08T01:10:13;5.23;;;2.67;;
7957;SDS011;4024;52.172;5.378;2023-01-08T01:12:40;3.70;;;2.60;;
7957;SDS011;4024;52.172;5.378;2023-01-08T01:15:07;4.67;;;2.73;;
7957;SDS011;4024;52.172;5.378;2023-01-08T01:17:39;4.17;;;2.80;;
7957;SDS011;4024;52.172;5.378;2023-01-08T01:20:06;3.13;;;2.70;;
7957;SDS011;4024;52.172;5.378;2023-01-08T01:22:33;6.87;;;4.03;;
7957;SDS011;4024;52.172;5.378;2023-01-08T01:25:00;6.67;;;3.77;;
7957;SDS011;4024;52.172;5.378;2023-01-08T01:27:25;6.27;;;3.63;;
7957;SDS011;4024;52.172;5.378;2023-01-08T01:29:52;4.50;;;3.40;;
7957;SDS011;4024;52.172;5.378;2023-01-08T01:32:18;8.73;;;3.90;;
7957;SDS011;4024;52.172;5.378;2023-01-08T01:34:44;5.70;;;3.60;;
7957;SDS011;4024;52.172;5.378;2023-01-08T01:37:13;5.47;;;3.63;;
7957;SDS011;4024;52.172;5.378;2023-01-08T01:39:39;3.30;;;3.00;;
7957;SDS011;4024;52.172;5.378;2023-01-08T01:42:10;5.43;;;2.80;;
7957;SDS011;4024;52.172;5.378;2023-01-08T01:45:13;5.03;;;2.60;;
7957;SDS011;4024;52.172;5.378;2023-01-08T01:47:40;8.50;;;2.90;;
7957;SDS011;4024;52.172;5.378;2023-01-08T01:50:10;5.13;;;2.50;;
7957;SDS011;4024;52.172;5.378;2023-01-08T01:52:54;4.23;;;2.40;;
7957;SDS011;4024;52.172;5.378;2023-01-08T01:55:27;5.70;;;2.87;;
7957;SDS011;4024;52.172;5.378;2023-01-08T01:58:05;5.50;;;2.40;;
7957;SDS011;4024;52.172;5.378;2023-01-08T02:00:38;4.87;;;2.40;;
7957;SDS011;4024;52.172;5.378;2023-01-08T02:03:07;4.20;;;2.20;;
7957;SDS011;4024;52.172;5.378;2023-01-08T02:05:37;3.37;;;1.90;;
7957;SDS011;4024;52.172;5.378;2023-01-08T02:08:27;3.63;;;1.93;;
7957;SDS011;4024;52.172;5.378;2023-01-08T02:10:59;3.27;;;2.13;;
7957;SDS011;4024;52.172;5.378;2023-01-08T02:13:35;2.90;;;2.10;;
7957;SDS011;4024;52.172;5.378;2023-01-08T02:16:13;3.37;;;1.87;;
7957;SDS011;4024;52.172;5.378;2023-01-08T02:18:47;4.83;;;2.30;;
7957;SDS011;4024;52.172;5.378;2023-01-08T02:21:28;3.13;;;2.17;;
7957;SDS011;4024;52.172;5.378;2023-01-08T02:26:41;4.87;;;1.97;;
7957;SDS011;4024;52.172;5.378;2023-01-08T02:29:09;4.03;;;1.60;;
7957;SDS011;4024;52.172;5.378;2023-01-08T02:31:47;2.43;;;2.03;;
7957;SDS011;4024;52.172;5.378;2023-01-08T02:34:13;4.10;;;1.90;;
7957;SDS011;4024;52.172;5.378;2023-01-08T02:36:43;2.67;;;1.97;;
7957;SDS011;4024;52.172;5.378;2023-01-08T02:42:05;3.57;;;1.90;;
7957;SDS011;4024;52.172;5.378;2023-01-08T02:47:20;3.57;;;2.27;;
7957;SDS011;4024;52.172;5.378;2023-01-08T02:49:59;3.23;;;2.00;;
7957;SDS011;4024;52.172;5.378;2023-01-08T02:52:47;3.10;;;1.70;;
7957;SDS011;4024;52.172;5.378;2023-01-08T02:55:25;2.80;;;1.60;;
7957;SDS011;4024;52.172;5.378;2023-01-08T02:57:52;4.53;;;2.10;;
7957;SDS011;4024;52.172;5.378;2023-01-08T03:00:19;4.43;;;2.03;;
7957;SDS011;4024;52.172;5.378;2023-01-08T03:02:45;5.53;;;2.10;;
7957;SDS011;4024;52.172;5.378;2023-01-08T03:05:16;5.07;;;2.00;;
7957;SDS011;4024;52.172;5.378;2023-01-08T03:07:47;2.43;;;1.70;;
7957;SDS011;4024;52.172;5.378;2023-01-08T03:10:13;5.47;;;2.17;;
7957;SDS011;4024;52.172;5.378;2023-01-08T03:12:55;3.73;;;2.00;;
7957;SDS011;4024;52.172;5.378;2023-01-08T03:15:35;4.67;;;1.83;;
7957;SDS011;4024;52.172;5.378;2023-01-08T03:18:08;3.70;;;2.17;;
7957;SDS011;4024;52.172;5.378;2023-01-08T03:20:37;5.43;;;2.00;;
7957;SDS011;4024;52.172;5.378;2023-01-08T03:23:05;6.37;;;2.10;;
7957;SDS011;4024;52.172;5.378;2023-01-08T03:25:33;3.03;;;2.13;;
7957;SDS011;4024;52.172;5.378;2023-01-08T03:28:04;4.17;;;2.13;;
7957;SDS011;4024;52.172;5.378;2023-01-08T03:30:34;2.80;;;2.10;;
7957;SDS011;4024;52.172;5.378;2023-01-08T03:33:02;2.87;;;2.20;;
7957;SDS011;4024;52.172;5.378;2023-01-08T03:35:29;3.53;;;2.00;;
7957;SDS011;4024;52.172;5.378;2023-01-08T03:37:59;3.17;;;2.30;;
7957;SDS011;4024;52.172;5.378;2023-01-08T03:40:33;3.03;;;2.40;;
7957;SDS011;4024;52.172;5.378;2023-01-08T03:43:03;4.70;;;2.60;;
7957;SDS011;4024;52.172;5.378;2023-01-08T03:45:28;4.87;;;2.50;;
7957;SDS011;4024;52.172;5.378;2023-01-08T03:47:55;3.90;;;2.67;;
7957;SDS011;4024;52.172;5.378;2023-01-08T03:50:23;4.23;;;2.90;;
7957;SDS011;4024;52.172;5.378;2023-01-08T03:52:52;3.27;;;2.60;;
7957;SDS011;4024;52.172;5.378;2023-01-08T03:55:17;4.77;;;2.73;;
7957;SDS011;4024;52.172;5.378;2023-01-08T03:57:43;3.47;;;2.67;;
7957;SDS011;4024;52.172;5.378;2023-01-08T04:00:09;5.57;;;3.27;;
7957;SDS011;4024;52.172;5.378;2023-01-08T04:02:35;6.73;;;3.43;;
7957;SDS011;4024;52.172;5.378;2023-01-08T04:05:01;5.03;;;3.20;;
7957;SDS011;4024;52.172;5.378;2023-01-08T04:07:26;4.03;;;3.00;;
7957;SDS011;4024;52.172;5.378;2023-01-08T04:09:52;6.17;;;3.10;;
7957;SDS011;4024;52.172;5.378;2023-01-08T04:12:18;5.27;;;3.20;;
7957;SDS011;4024;52.172;5.378;2023-01-08T04:14:43;5.70;;;3.00;;
7957;SDS011;4024;52.172;5.378;2023-01-08T04:17:12;5.23;;;3.60;;
7957;SDS011;4024;52.172;5.378;2023-01-08T04:19:38;4.20;;;3.27;;
7957;SDS011;4024;52.172;5.378;2023-01-08T04:22:04;6.23;;;3.00;;
7957;SDS011;4024;52.172;5.378;2023-01-08T04:24:29;7.53;;;3.40;;
7957;SDS011;4024;52.172;5.378;2023-01-08T04:26:55;4.47;;;2.97;;
7957;SDS011;4024;52.172;5.378;2023-01-08T04:29:20;6.33;;;2.63;;
7957;SDS011;4024;52.172;5.378;2023-01-08T04:31:46;6.27;;;3.10;;
7957;SDS011;4024;52.172;5.378;2023-01-08T04:34:11;4.20;;;2.90;;
7957;SDS011;4024;52.172;5.378;2023-01-08T04:36:37;5.83;;;2.80;;
7957;SDS011;4024;52.172;5.378;2023-01-08T04:39:03;4.77;;;2.93;;
7957;SDS011;4024;52.172;5.378;2023-01-08T04:41:29;9.43;;;2.97;;
7957;SDS011;4024;52.172;5.378;2023-01-08T04:43:55;4.87;;;3.37;;
7957;SDS011;4024;52.172;5.378;2023-01-08T04:46:20;5.57;;;3.30;;
7957;SDS011;4024;52.172;5.378;2023-01-08T04:48:46;4.60;;;3.10;;
7957;SDS011;4024;52.172;5.378;2023-01-08T04:51:12;6.00;;;2.70;;
7957;SDS011;4024;52.172;5.378;2023-01-08T04:53:37;5.53;;;2.57;;
7957;SDS011;4024;52.172;5.378;2023-01-08T04:56:06;5.87;;;2.83;;
7957;SDS011;4024;52.172;5.378;2023-01-08T04:58:34;2.50;;;2.30;;
7957;SDS011;4024;52.172;5.378;2023-01-08T05:01:00;4.07;;;2.60;;
7957;SDS011;4024;52.172;5.378;2023-01-08T05:03:32;3.23;;;2.73;;
7957;SDS011;4024;52.172;5.378;2023-01-08T05:05:59;4.47;;;2.73;;
7957;SDS011;4024;52.172;5.378;2023-01-08T05:08:24;3.43;;;2.30;;
7957;SDS011;4024;52.172;5.378;2023-01-08T05:10:50;6.80;;;2.57;;
7957;SDS011;4024;52.172;5.378;2023-01-08T05:13:17;5.43;;;2.40;;
7957;SDS011;4024;52.172;5.378;2023-01-08T05:15:42;3.43;;;2.10;;
7957;SDS011;4024;52.172;5.378;2023-01-08T05:18:08;6.00;;;2.20;;
7957;SDS011;4024;52.172;5.378;2023-01-08T05:20:34;4.90;;;2.30;;
7957;SDS011;4024;52.172;5.378;2023-01-08T05:23:00;4.27;;;2.43;;
7957;SDS011;4024;52.172;5.378;2023-01-08T05:25:26;4.97;;;2.23;;
7957;SDS011;4024;52.172;5.378;2023-01-08T05:27:52;4.53;;;2.30;;
7957;SDS011;4024;52.172;5.378;2023-01-08T05:30:18;4.00;;;2.20;;
7957;SDS011;4024;52.172;5.378;2023-01-08T05:32:44;4.50;;;1.90;;
7957;SDS011;4024;52.172;5.378;2023-01-08T05:35:10;8.23;;;2.37;;
7957;SDS011;4024;52.172;5.378;2023-01-08T05:37:35;6.73;;;2.30;;
7957;SDS011;4024;52.172;5.378;2023-01-08T05:40:02;5.87;;;2.20;;
7957;SDS011;4024;52.172;5.378;2023-01-08T05:42:28;7.67;;;2.37;;
7957;SDS011;4024;52.172;5.378;2023-01-08T05:44:53;5.53;;;2.27;;
7957;SDS011;4024;52.172;5.378;2023-01-08T05:47:19;4.20;;;2.20;;
7957;SDS011;4024;52.172;5.378;2023-01-08T05:49:45;7.87;;;2.47;;
7957;SDS011;4024;52.172;5.378;2023-01-08T05:52:10;7.00;;;2.47;;
7957;SDS011;4024;52.172;5.378;2023-01-08T05:54:36;5.30;;;2.73;;
7957;SDS011;4024;52.172;5.378;2023-01-08T05:57:02;5.97;;;2.50;;
7957;SDS011;4024;52.172;5.378;2023-01-08T05:59:27;6.13;;;2.40;;
7957;SDS011;4024;52.172;5.378;2023-01-08T06:01:53;6.23;;;2.97;;
7957;SDS011;4024;52.172;5.378;2023-01-08T06:04:18;5.40;;;2.30;;
7957;SDS011;4024;52.172;5.378;2023-01-08T06:06:44;5.87;;;2.20;;
7957;SDS011;4024;52.172;5.378;2023-01-08T06:09:10;4.37;;;2.43;;
7957;SDS011;4024;52.172;5.378;2023-01-08T06:11:35;6.87;;;2.60;;
7957;SDS011;4024;52.172;5.378;2023-01-08T06:14:01;4.73;;;2.33;;
7957;SDS011;4024;52.172;5.378;2023-01-08T06:16:26;4.33;;;2.93;;
7957;SDS011;4024;52.172;5.378;2023-01-08T06:18:52;8.07;;;2.63;;
7957;SDS011;4024;52.172;5.378;2023-01-08T06:21:18;3.57;;;2.13;;
7957;SDS011;4024;52.172;5.378;2023-01-08T06:23:43;4.23;;;2.30;;
7957;SDS011;4024;52.172;5.378;2023-01-08T06:26:10;4.73;;;2.60;;
7957;SDS011;4024;52.172;5.378;2023-01-08T06:28:36;6.63;;;2.83;;
7957;SDS011;4024;52.172;5.378;2023-01-08T06:31:02;5.57;;;2.60;;
7957;SDS011;4024;52.172;5.378;2023-01-08T06:33:28;15.57;;;2.77;;
7957;SDS011;4024;52.172;5.378;2023-01-08T06:35:54;4.93;;;2.63;;
7957;SDS011;4024;52.172;5.378;2023-01-08T06:38:24;5.07;;;2.67;;
7957;SDS011;4024;52.172;5.378;2023-01-08T06:40:50;4.73;;;2.60;;
7957;SDS011;4024;52.172;5.378;2023-01-08T06:43:15;5.47;;;2.40;;
7957;SDS011;4024;52.172;5.378;2023-01-08T06:45:41;4.67;;;2.73;;
7957;SDS011;4024;52.172;5.378;2023-01-08T06:48:07;5.33;;;2.93;;
7957;SDS011;4024;52.172;5.378;2023-01-08T06:50:33;7.03;;;2.90;;
7957;SDS011;4024;52.172;5.378;2023-01-08T06:52:59;8.43;;;2.63;;
7957;SDS011;4024;52.172;5.378;2023-01-08T06:55:25;6.37;;;3.03;;
7957;SDS011;4024;52.172;5.378;2023-01-08T06:57:54;5.83;;;2.60;;
7957;SDS011;4024;52.172;5.378;2023-01-08T07:00:21;9.40;;;2.80;;
7957;SDS011;4024;52.172;5.378;2023-01-08T07:02:48;6.83;;;3.27;;
7957;SDS011;4024;52.172;5.378;2023-01-08T07:05:14;7.33;;;2.63;;
7957;SDS011;4024;52.172;5.378;2023-01-08T07:07:40;7.97;;;2.57;;
7957;SDS011;4024;52.172;5.378;2023-01-08T07:10:06;8.13;;;2.97;;
7957;SDS011;4024;52.172;5.378;2023-01-08T07:12:32;7.87;;;2.90;;
7957;SDS011;4024;52.172;5.378;2023-01-08T07:14:58;6.40;;;2.73;;
7957;SDS011;4024;52.172;5.378;2023-01-08T07:17:23;8.10;;;2.73;;
7957;SDS011;4024;52.172;5.378;2023-01-08T07:19:49;6.47;;;3.00;;
7957;SDS011;4024;52.172;5.378;2023-01-08T07:22:14;11.23;;;3.57;;
7957;SDS011;4024;52.172;5.378;2023-01-08T07:24:40;7.93;;;2.57;;
7957;SDS011;4024;52.172;5.378;2023-01-08T07:27:06;5.43;;;2.93;;
7957;SDS011;4024;52.172;5.378;2023-01-08T07:29:31;4.17;;;2.43;;
7957;SDS011;4024;52.172;5.378;2023-01-08T07:31:57;5.77;;;2.60;;
7957;SDS011;4024;52.172;5.378;2023-01-08T07:34:22;8.23;;;3.03;;
7957;SDS011;4024;52.172;5.378;2023-01-08T07:36:48;7.27;;;2.60;;
7957;SDS011;4024;52.172;5.378;2023-01-08T07:39:14;6.67;;;2.80;;
7957;SDS011;4024;52.172;5.378;2023-01-08T07:41:39;5.00;;;2.67;;
7957;SDS011;4024;52.172;5.378;2023-01-08T07:44:05;9.87;;;2.30;;
7957;SDS011;4024;52.172;5.378;2023-01-08T07:46:30;5.13;;;2.30;;
7957;SDS011;4024;52.172;5.378;2023-01-08T07:48:56;7.53;;;3.07;;
7957;SDS011;4024;52.172;5.378;2023-01-08T07:51:22;7.80;;;3.07;;
7957;SDS011;4024;52.172;5.378;2023-01-08T07:53:47;6.87;;;2.53;;
7957;SDS011;4024;52.172;5.378;2023-01-08T07:56:15;5.67;;;2.60;;
7957;SDS011;4024;52.172;5.378;2023-01-08T07:58:40;6.23;;;2.50;;
7957;SDS011;4024;52.172;5.378;2023-01-08T08:01:07;4.47;;;3.27;;
7957;SDS011;4024;52.172;5.378;2023-01-08T08:03:35;7.57;;;2.60;;
7957;SDS011;4024;52.172;5.378;2023-01-08T08:06:02;8.23;;;2.63;;
7957;SDS011;4024;52.172;5.378;2023-01-08T08:08:28;7.23;;;2.63;;
7957;SDS011;4024;52.172;5.378;2023-01-08T08:10:53;6.70;;;2.60;;
7957;SDS011;4024;52.172;5.378;2023-01-08T08:13:19;6.43;;;2.23;;
7957;SDS011;4024;52.172;5.378;2023-01-08T08:15:45;10.47;;;2.80;;
7957;SDS011;4024;52.172;5.378;2023-01-08T08:18:10;6.23;;;2.60;;
7957;SDS011;4024;52.172;5.378;2023-01-08T08:20:36;7.60;;;2.63;;
7957;SDS011;4024;52.172;5.378;2023-01-08T08:23:03;8.33;;;2.50;;
7957;SDS011;4024;52.172;5.378;2023-01-08T08:25:38;4.80;;;2.17;;
7957;SDS011;4024;52.172;5.378;2023-01-08T08:28:05;8.57;;;2.83;;
7957;SDS011;4024;52.172;5.378;2023-01-08T08:30:31;8.03;;;3.47;;
7957;SDS011;4024;52.172;5.378;2023-01-08T08:33:00;5.20;;;2.70;;
7957;SDS011;4024;52.172;5.378;2023-01-08T08:35:28;6.63;;;3.07;;
7957;SDS011;4024;52.172;5.378;2023-01-08T08:37:54;7.10;;;2.47;;
7957;SDS011;4024;52.172;5.378;2023-01-08T08:40:21;7.17;;;2.37;;
7957;SDS011;4024;52.172;5.378;2023-01-08T08:42:47;7.40;;;2.30;;
7957;SDS011;4024;52.172;5.378;2023-01-08T08:45:12;12.40;;;3.17;;
7957;SDS011;4024;52.172;5.378;2023-01-08T08:47:38;8.90;;;2.60;;
7957;SDS011;4024;52.172;5.378;2023-01-08T08:50:04;7.00;;;2.63;;
7957;SDS011;4024;52.172;5.378;2023-01-08T08:52:31;8.77;;;3.00;;
7957;SDS011;4024;52.172;5.378;2023-01-08T08:54:58;9.83;;;2.80;;
7957;SDS011;4024;52.172;5.378;2023-01-08T08:57:24;7.13;;;2.60;;
7957;SDS011;4024;52.172;5.378;2023-01-08T08:59:51;8.33;;;2.67;;
7957;SDS011;4024;52.172;5.378;2023-01-08T09:02:17;8.00;;;3.13;;
7957;SDS011;4024;52.172;5.378;2023-01-08T09:04:42;14.53;;;2.90;;
7957;SDS011;4024;52.172;5.378;2023-01-08T09:07:08;8.23;;;2.47;;
7957;SDS011;4024;52.172;5.378;2023-01-08T09:09:34;13.47;;;3.23;;
7957;SDS011;4024;52.172;5.378;2023-01-08T09:11:59;13.33;;;2.90;;
7957;SDS011;4024;52.172;5.378;2023-01-08T09:14:25;6.93;;;2.87;;
7957;SDS011;4024;52.172;5.378;2023-01-08T09:16:51;6.67;;;2.73;;
7957;SDS011;4024;52.172;5.378;2023-01-08T09:19:17;9.67;;;2.97;;
7957;SDS011;4024;52.172;5.378;2023-01-08T09:21:42;10.43;;;3.30;;
7957;SDS011;4024;52.172;5.378;2023-01-08T09:24:10;9.53;;;2.97;;
7957;SDS011;4024;52.172;5.378;2023-01-08T09:26:36;5.37;;;3.07;;
7957;SDS011;4024;52.172;5.378;2023-01-08T09:29:02;11.43;;;2.90;;
7957;SDS011;4024;52.172;5.378;2023-01-08T09:31:28;10.60;;;2.73;;
7957;SDS011;4024;52.172;5.378;2023-01-08T09:33:53;7.53;;;2.87;;
7957;SDS011;4024;52.172;5.378;2023-01-08T09:36:19;13.83;;;3.43;;
7957;SDS011;4024;52.172;5.378;2023-01-08T09:38:44;9.47;;;3.13;;
7957;SDS011;4024;52.172;5.378;2023-01-08T09:41:12;6.50;;;2.93;;
7957;SDS011;4024;52.172;5.378;2023-01-08T09:43:44;12.97;;;3.30;;
7957;SDS011;4024;52.172;5.378;2023-01-08T09:46:12;11.93;;;3.47;;
7957;SDS011;4024;52.172;5.378;2023-01-08T09:48:40;9.53;;;3.20;;
7957;SDS011;4024;52.172;5.378;2023-01-08T09:51:11;8.93;;;3.20;;
7957;SDS011;4024;52.172;5.378;2023-01-08T09:53:39;6.70;;;2.80;;
7957;SDS011;4024;52.172;5.378;2023-01-08T09:56:10;11.90;;;3.80;;
7957;SDS011;4024;52.172;5.378;2023-01-08T09:58:50;9.27;;;3.30;;
7957;SDS011;4024;52.172;5.378;2023-01-08T10:01:22;10.03;;;3.50;;
7957;SDS011;4024;52.172;5.378;2023-01-08T10:06:35;8.73;;;2.90;;
7957;SDS011;4024;52.172;5.378;2023-01-08T10:09:01;9.47;;;3.20;;
7957;SDS011;4024;52.172;5.378;2023-01-08T10:11:27;10.30;;;3.30;;
7957;SDS011;4024;52.172;5.378;2023-01-08T10:14:04;11.13;;;3.20;;
7957;SDS011;4024;52.172;5.378;2023-01-08T10:16:41;11.23;;;3.40;;
7957;SDS011;4024;52.172;5.378;2023-01-08T10:19:07;8.60;;;3.37;;
7957;SDS011;4024;52.172;5.378;2023-01-08T10:21:38;9.77;;;3.13;;
7957;SDS011;4024;52.172;5.378;2023-01-08T10:24:05;10.00;;;3.30;;
7957;SDS011;4024;52.172;5.378;2023-01-08T10:26:32;11.90;;;3.03;;
7957;SDS011;4024;52.172;5.378;2023-01-08T10:29:13;9.10;;;3.83;;
7957;SDS011;4024;52.172;5.378;2023-01-08T10:34:24;10.07;;;3.43;;
7957;SDS011;4024;52.172;5.378;2023-01-08T10:36:52;8.60;;;2.77;;
7957;SDS011;4024;52.172;5.378;2023-01-08T10:39:23;13.67;;;3.43;;
7957;SDS011;4024;52.172;5.378;2023-01-08T10:41:51;14.43;;;3.90;;
7957;SDS011;4024;52.172;5.378;2023-01-08T10:44:20;12.13;;;3.70;;
7957;SDS011;4024;52.172;5.378;2023-01-08T10:46:49;10.97;;;2.83;;
7957;SDS011;4024;52.172;5.378;2023-01-08T10:52:22;10.17;;;2.87;;
7957;SDS011;4024;52.172;5.378;2023-01-08T10:54:48;8.70;;;2.73;;
7957;SDS011;4024;52.172;5.378;2023-01-08T10:57:32;9.00;;;3.20;;
7957;SDS011;4024;52.172;5.378;2023-01-08T10:59:58;9.37;;;3.40;;
7957;SDS011;4024;52.172;5.378;2023-01-08T11:04:52;9.90;;;3.37;;
7957;SDS011;4024;52.172;5.378;2023-01-08T11:07:19;7.83;;;3.20;;
7957;SDS011;4024;52.172;5.378;2023-01-08T11:09:47;6.90;;;2.63;;
7957;SDS011;4024;52.172;5.378;2023-01-08T11:14:57;6.40;;;3.00;;
7957;SDS011;4024;52.172;5.378;2023-01-08T11:17:26;6.37;;;2.97;;
7957;SDS011;4024;52.172;5.378;2023-01-08T11:19:52;9.73;;;2.93;;
7957;SDS011;4024;52.172;5.378;2023-01-08T11:22:19;5.73;;;2.87;;
7957;SDS011;4024;52.172;5.378;2023-01-08T11:24:46;11.77;;;3.20;;
7957;SDS011;4024;52.172;5.378;2023-01-08T11:27:15;7.50;;;3.07;;
7957;SDS011;4024;52.172;5.378;2023-01-08T11:35:00;6.63;;;2.60;;
7957;SDS011;4024;52.172;5.378;2023-01-08T11:37:35;7.10;;;2.53;;
7957;SDS011;4024;52.172;5.378;2023-01-08T11:40:10;4.17;;;2.40;;
7957;SDS011;4024;52.172;5.378;2023-01-08T11:48:24;7.97;;;2.80;;
7957;SDS011;4024;52.172;5.378;2023-01-08T11:51:05;4.83;;;2.60;;
7957;SDS011;4024;52.172;5.378;2023-01-08T12:02:19;8.27;;;2.53;;
7957;SDS011;4024;52.172;5.378;2023-01-08T12:10:29;4.03;;;2.37;;
7957;SDS011;4024;52.172;5.378;2023-01-08T12:18:34;5.60;;;2.83;;
7957;SDS011;4024;52.172;5.378;2023-01-08T12:32:58;9.50;;;5.63;;
7957;SDS011;4024;52.172;5.378;2023-01-08T12:35:29;4.47;;;3.17;;
7957;SDS011;4024;52.172;5.378;2023-01-08T12:38:05;5.00;;;2.43;;
7957;SDS011;4024;52.172;5.378;2023-01-08T12:40:54;5.10;;;2.30;;
7957;SDS011;4024;52.172;5.378;2023-01-08T12:46:08;4.07;;;2.73;;
7957;SDS011;4024;52.172;5.378;2023-01-08T12:48:38;4.50;;;2.50;;
7957;SDS011;4024;52.172;5.378;2023-01-08T13:01:55;2.77;;;2.20;;
7957;SDS011;4024;52.172;5.378;2023-01-08T13:04:22;3.60;;;2.20;;
7957;SDS011;4024;52.172;5.378;2023-01-08T13:06:51;3.87;;;2.30;;
7957;SDS011;4024;52.172;5.378;2023-01-08T13:09:28;6.93;;;2.40;;
7957;SDS011;4024;52.172;5.378;2023-01-08T13:11:56;3.27;;;2.37;;
7957;SDS011;4024;52.172;5.378;2023-01-08T13:14:24;4.20;;;2.00;;
7957;SDS011;4024;52.172;5.378;2023-01-08T13:19:58;2.73;;;1.90;;
7957;SDS011;4024;52.172;5.378;2023-01-08T13:22:30;4.20;;;2.20;;
7957;SDS011;4024;52.172;5.378;2023-01-08T13:27:44;2.87;;;2.23;;
7957;SDS011;4024;52.172;5.378;2023-01-08T13:38:38;3.73;;;2.33;;
7957;SDS011;4024;52.172;5.378;2023-01-08T13:41:04;4.17;;;2.07;;
7957;SDS011;4024;52.172;5.378;2023-01-08T13:43:38;4.07;;;1.97;;
7957;SDS011;4024;52.172;5.378;2023-01-08T13:46:15;3.13;;;2.00;;
7957;SDS011;4024;52.172;5.378;2023-01-08T13:48:52;5.17;;;2.20;;
7957;SDS011;4024;52.172;5.378;2023-01-08T13:54:00;3.40;;;2.10;;
7957;SDS011;4024;52.172;5.378;2023-01-08T13:56:51;3.80;;;2.20;;
7957;SDS011;4024;52.172;5.378;2023-01-08T13:59:19;7.27;;;2.43;;
7957;SDS011;4024;52.172;5.378;2023-01-08T14:01:56;4.87;;;2.27;;
7957;SDS011;4024;52.172;5.378;2023-01-08T14:04:24;5.43;;;2.00;;
7957;SDS011;4024;52.172;5.378;2023-01-08T14:06:49;4.50;;;2.17;;
7957;SDS011;4024;52.172;5.378;2023-01-08T14:09:22;4.50;;;2.00;;
7957;SDS011;4024;52.172;5.378;2023-01-08T14:11:49;3.97;;;2.03;;
7957;SDS011;4024;52.172;5.378;2023-01-08T14:14:18;4.83;;;2.13;;
7957;SDS011;4024;52.172;5.378;2023-01-08T14:16:49;6.40;;;2.10;;
7957;SDS011;4024;52.172;5.378;2023-01-08T14:19:16;4.30;;;1.90;;
7957;SDS011;4024;52.172;5.378;2023-01-08T14:21:45;4.47;;;2.37;;
7957;SDS011;4024;52.172;5.378;2023-01-08T14:24:15;6.13;;;2.57;;
7957;SDS011;4024;52.172;5.378;2023-01-08T14:26:42;3.70;;;1.90;;
7957;SDS011;4024;52.172;5.378;2023-01-08T14:29:18;5.03;;;2.37;;
7957;SDS011;4024;52.172;5.378;2023-01-08T14:31:46;7.13;;;2.10;;
7957;SDS011;4024;52.172;5.378;2023-01-08T14:34:13;7.30;;;2.33;;
7957;SDS011;4024;52.172;5.378;2023-01-08T14:36:40;6.00;;;2.20;;
7957;SDS011;4024;52.172;5.378;2023-01-08T14:41:51;7.80;;;2.23;;
7957;SDS011;4024;52.172;5.378;2023-01-08T14:44:38;5.87;;;2.20;;
7957;SDS011;4024;52.172;5.378;2023-01-08T14:47:05;7.63;;;2.60;;
7957;SDS011;4024;52.172;5.378;2023-01-08T14:49:37;10.13;;;2.80;;
7957;SDS011;4024;52.172;5.378;2023-01-08T14:52:08;6.90;;;2.53;;
7957;SDS011;4024;52.172;5.378;2023-01-08T14:54:36;6.97;;;2.70;;
7957;SDS011;4024;52.172;5.378;2023-01-08T14:57:01;7.07;;;2.80;;
7957;SDS011;4024;52.172;5.378;2023-01-08T14:59:29;9.27;;;2.67;;
7957;SDS011;4024;52.172;5.378;2023-01-08T15:01:58;7.33;;;2.30;;
7957;SDS011;4024;52.172;5.378;2023-01-08T15:04:26;5.63;;;2.27;;
7957;SDS011;4024;52.172;5.378;2023-01-08T15:07:03;5.87;;;2.60;;
7957;SDS011;4024;52.172;5.378;2023-01-08T15:09:40;6.10;;;2.40;;
7957;SDS011;4024;52.172;5.378;2023-01-08T15:12:06;8.37;;;2.87;;
7957;SDS011;4024;52.172;5.378;2023-01-08T15:14:46;7.57;;;2.47;;
7957;SDS011;4024;52.172;5.378;2023-01-08T15:17:16;8.07;;;2.33;;
7957;SDS011;4024;52.172;5.378;2023-01-08T15:19:45;7.77;;;2.30;;
7957;SDS011;4024;52.172;5.378;2023-01-08T15:22:19;6.93;;;2.63;;
7957;SDS011;4024;52.172;5.378;2023-01-08T15:24:53;6.03;;;2.67;;
7957;SDS011;4024;52.172;5.378;2023-01-08T15:27:30;6.80;;;2.50;;
7957;SDS011;4024;52.172;5.378;2023-01-08T15:30:00;8.80;;;2.90;;
7957;SDS011;4024;52.172;5.378;2023-01-08T15:34:54;7.97;;;2.83;;
7957;SDS011;4024;52.172;5.378;2023-01-08T15:37:19;5.70;;;2.73;;
7957;SDS011;4024;52.172;5.378;2023-01-08T15:39:45;8.30;;;3.17;;
7957;SDS011;4024;52.172;5.378;2023-01-08T15:42:21;4.93;;;2.70;;
7957;SDS011;4024;52.172;5.378;2023-01-08T15:45:15;7.97;;;3.17;;
7957;SDS011;4024;52.172;5.378;2023-01-08T15:47:42;9.50;;;3.83;;
7957;SDS011;4024;52.172;5.378;2023-01-08T15:50:08;5.67;;;3.10;;
7957;SDS011;4024;52.172;5.378;2023-01-08T15:52:36;6.13;;;3.57;;
7957;SDS011;4024;52.172;5.378;2023-01-08T15:55:03;6.77;;;3.20;;
7957;SDS011;4024;52.172;5.378;2023-01-08T15:57:30;9.07;;;3.20;;
7957;SDS011;4024;52.172;5.378;2023-01-08T15:59:56;6.30;;;3.03;;
7957;SDS011;4024;52.172;5.378;2023-01-08T16:02:22;5.20;;;2.73;;
7957;SDS011;4024;52.172;5.378;2023-01-08T16:04:51;4.97;;;2.63;;
7957;SDS011;4024;52.172;5.378;2023-01-08T16:07:18;7.30;;;3.10;;
7957;SDS011;4024;52.172;5.378;2023-01-08T16:09:44;4.80;;;2.80;;
7957;SDS011;4024;52.172;5.378;2023-01-08T16:12:10;6.90;;;3.27;;
7957;SDS011;4024;52.172;5.378;2023-01-08T16:14:35;8.07;;;2.63;;
7957;SDS011;4024;52.172;5.378;2023-01-08T16:17:04;6.37;;;3.03;;
7957;SDS011;4024;52.172;5.378;2023-01-08T16:19:30;5.13;;;3.07;;
7957;SDS011;4024;52.172;5.378;2023-01-08T16:21:56;11.20;;;3.23;;
7957;SDS011;4024;52.172;5.378;2023-01-08T16:24:23;7.73;;;3.53;;
7957;SDS011;4024;52.172;5.378;2023-01-08T16:26:49;10.07;;;3.30;;
7957;SDS011;4024;52.172;5.378;2023-01-08T16:29:14;8.47;;;3.63;;
7957;SDS011;4024;52.172;5.378;2023-01-08T16:31:44;9.60;;;4.37;;
7957;SDS011;4024;52.172;5.378;2023-01-08T16:34:11;10.83;;;4.63;;
7957;SDS011;4024;52.172;5.378;2023-01-08T16:36:37;6.53;;;3.20;;
7957;SDS011;4024;52.172;5.378;2023-01-08T16:39:02;5.60;;;3.53;;
7957;SDS011;4024;52.172;5.378;2023-01-08T16:41:29;8.60;;;3.47;;
7957;SDS011;4024;52.172;5.378;2023-01-08T16:43:54;8.00;;;3.53;;
7957;SDS011;4024;52.172;5.378;2023-01-08T16:46:20;9.23;;;3.80;;
7957;SDS011;4024;52.172;5.378;2023-01-08T16:48:45;6.67;;;3.57;;
7957;SDS011;4024;52.172;5.378;2023-01-08T16:51:12;5.60;;;3.27;;
7957;SDS011;4024;52.172;5.378;2023-01-08T16:53:38;6.07;;;3.17;;
7957;SDS011;4024;52.172;5.378;2023-01-08T16:56:04;13.67;;;3.83;;
7957;SDS011;4024;52.172;5.378;2023-01-08T16:58:36;9.20;;;4.03;;
7957;SDS011;4024;52.172;5.378;2023-01-08T17:01:06;8.33;;;3.30;;
7957;SDS011;4024;52.172;5.378;2023-01-08T17:03:32;4.97;;;3.30;;
7957;SDS011;4024;52.172;5.378;2023-01-08T17:06:03;5.17;;;2.80;;